sensor_id;sensor_type;location;lat;lon;timestamp;P1;durP1;ratioP1;P2;durP2;ratioP2
58306;SDS011;44116;50.884;4.768;2023-08-31T00:01:07;2.7;;;1.5;;
58306;SDS011;44116;50.884;4.768;2023-08-31T00:03:07;3.0;;;1.6;;
58306;SDS011;44116;50.884;4.768;2023-08-31T00:07:06;2.9;;;1.5;;
58306;SDS011;44116;50.884;4.768;2023-08-31T00:09:06;2.1;;;1.4;;
58306;SDS011;44116;50.884;4.768;2023-08-31T00:11:06;6.3;;;1.7;;
58306;SDS011;44116;50.884;4.768;2023-08-31T00:13:06;2.7;;;1.5;;
58306;SDS011;44116;50.884;4.768;2023-08-31T00:17:05;3.4;;;1.7;;
58306;SDS011;44116;50.884;4.768;2023-08-31T00:21:04;3.9;;;2.0;;
58306;SDS011;44116;50.884;4.768;2023-08-31T00:23:04;3.4;;;1.6;;
58306;SDS011;44116;50.884;4.768;2023-08-31T00:25:04;4.3;;;2.1;;
58306;SDS011;44116;50.884;4.768;2023-08-31T00:27:04;3.0;;;1.6;;
58306;SDS011;44116;50.884;4.768;2023-08-31T00:29:03;3.3;;;1.8;;
58306;SDS011;44116;50.884;4.768;2023-08-31T00:31:03;3.6;;;1.7;;
58306;SDS011;44116;50.884;4.768;2023-08-31T00:33:03;3.2;;;2.0;;
58306;SDS011;44116;50.884;4.768;2023-08-31T00:35:03;2.7;;;1.6;;
58306;SDS011;44116;50.884;4.768;2023-08-31T00:37:02;2.7;;;1.7;;
58306;SDS011;44116;50.884;4.768;2023-08-31T00:39:02;4.3;;;1.9;;
58306;SDS011;44116;50.884;4.768;2023-08-31T00:43:01;2.9;;;2.1;;
58306;SDS011;44116;50.884;4.768;2023-08-31T00:45:01;3.5;;;1.8;;
58306;SDS011;44116;50.884;4.768;2023-08-31T00:47:01;3.6;;;1.9;;
58306;SDS011;44116;50.884;4.768;2023-08-31T00:49:01;5.7;;;2.0;;
58306;SDS011;44116;50.884;4.768;2023-08-31T00:51:00;3.6;;;2.1;;
58306;SDS011;44116;50.884;4.768;2023-08-31T00:53:00;4.9;;;2.2;;
58306;SDS011;44116;50.884;4.768;2023-08-31T00:55:00;3.9;;;2.1;;
58306;SDS011;44116;50.884;4.768;2023-08-31T00:56:59;3.4;;;1.8;;
58306;SDS011;44116;50.884;4.768;2023-08-31T00:58:59;4.2;;;1.9;;
58306;SDS011;44116;50.884;4.768;2023-08-31T01:03:01;3.4;;;2.0;;
58306;SDS011;44116;50.884;4.768;2023-08-31T01:05:04;2.8;;;1.7;;
58306;SDS011;44116;50.884;4.768;2023-08-31T01:07:03;5.7;;;2.0;;
58306;SDS011;44116;50.884;4.768;2023-08-31T01:09:02;2.8;;;1.9;;
58306;SDS011;44116;50.884;4.768;2023-08-31T01:11:04;3.7;;;2.0;;
58306;SDS011;44116;50.884;4.768;2023-08-31T01:13:01;3.3;;;1.9;;
58306;SDS011;44116;50.884;4.768;2023-08-31T01:15:03;7.9;;;2.3;;
58306;SDS011;44116;50.884;4.768;2023-08-31T01:18:57;5.4;;;2.4;;
58306;SDS011;44116;50.884;4.768;2023-08-31T01:21:02;3.0;;;2.2;;
58306;SDS011;44116;50.884;4.768;2023-08-31T01:23:00;5.0;;;2.0;;
58306;SDS011;44116;50.884;4.768;2023-08-31T01:24:56;4.4;;;2.2;;
58306;SDS011;44116;50.884;4.768;2023-08-31T01:26:56;4.6;;;2.4;;
58306;SDS011;44116;50.884;4.768;2023-08-31T01:28:55;3.8;;;2.5;;
58306;SDS011;44116;50.884;4.768;2023-08-31T01:30:55;3.5;;;2.0;;
58306;SDS011;44116;50.884;4.768;2023-08-31T01:32:54;3.5;;;2.2;;
58306;SDS011;44116;50.884;4.768;2023-08-31T01:34:55;4.2;;;2.3;;
58306;SDS011;44116;50.884;4.768;2023-08-31T01:36:58;5.1;;;2.2;;
58306;SDS011;44116;50.884;4.768;2023-08-31T01:38:58;4.2;;;2.6;;
58306;SDS011;44116;50.884;4.768;2023-08-31T01:46:53;4.7;;;2.7;;
58306;SDS011;44116;50.884;4.768;2023-08-31T01:48:52;4.6;;;2.5;;
58306;SDS011;44116;50.884;4.768;2023-08-31T01:50:52;5.5;;;3.1;;
58306;SDS011;44116;50.884;4.768;2023-08-31T01:52:52;3.6;;;2.4;;
58306;SDS011;44116;50.884;4.768;2023-08-31T01:54:51;5.4;;;3.1;;
58306;SDS011;44116;50.884;4.768;2023-08-31T01:56:51;5.4;;;2.7;;
58306;SDS011;44116;50.884;4.768;2023-08-31T01:58:51;4.6;;;2.9;;
58306;SDS011;44116;50.884;4.768;2023-08-31T02:06:50;6.5;;;2.8;;
58306;SDS011;44116;50.884;4.768;2023-08-31T02:08:49;5.7;;;3.0;;
58306;SDS011;44116;50.884;4.768;2023-08-31T02:12:49;4.9;;;2.7;;
58306;SDS011;44116;50.884;4.768;2023-08-31T02:16:48;5.9;;;2.8;;
58306;SDS011;44116;50.884;4.768;2023-08-31T02:18:48;5.0;;;2.7;;
58306;SDS011;44116;50.884;4.768;2023-08-31T02:22:48;4.6;;;2.8;;
58306;SDS011;44116;50.884;4.768;2023-08-31T02:26:48;4.6;;;2.9;;
58306;SDS011;44116;50.884;4.768;2023-08-31T02:28:47;5.3;;;2.7;;
58306;SDS011;44116;50.884;4.768;2023-08-31T02:30:57;5.9;;;3.0;;
58306;SDS011;44116;50.884;4.768;2023-08-31T02:32:46;5.1;;;3.2;;
58306;SDS011;44116;50.884;4.768;2023-08-31T02:34:46;6.0;;;3.0;;
58306;SDS011;44116;50.884;4.768;2023-08-31T02:36:46;5.9;;;3.1;;
58306;SDS011;44116;50.884;4.768;2023-08-31T02:38:46;6.4;;;3.0;;
58306;SDS011;44116;50.884;4.768;2023-08-31T02:40:46;5.2;;;2.9;;
58306;SDS011;44116;50.884;4.768;2023-08-31T02:42:45;5.4;;;3.4;;
58306;SDS011;44116;50.884;4.768;2023-08-31T02:44:45;6.5;;;3.3;;
58306;SDS011;44116;50.884;4.768;2023-08-31T02:46:44;5.5;;;2.8;;
58306;SDS011;44116;50.884;4.768;2023-08-31T02:48:44;6.5;;;3.0;;
58306;SDS011;44116;50.884;4.768;2023-08-31T02:50:44;4.8;;;3.2;;
58306;SDS011;44116;50.884;4.768;2023-08-31T02:54:43;6.3;;;3.4;;
58306;SDS011;44116;50.884;4.768;2023-08-31T02:56:43;6.4;;;3.1;;
58306;SDS011;44116;50.884;4.768;2023-08-31T02:58:43;8.1;;;4.0;;
58306;SDS011;44116;50.884;4.768;2023-08-31T03:00:43;6.1;;;3.1;;
58306;SDS011;44116;50.884;4.768;2023-08-31T03:02:42;7.3;;;3.0;;
58306;SDS011;44116;50.884;4.768;2023-08-31T03:04:42;6.6;;;3.1;;
58306;SDS011;44116;50.884;4.768;2023-08-31T03:06:42;5.7;;;3.4;;
58306;SDS011;44116;50.884;4.768;2023-08-31T03:08:41;6.8;;;3.3;;
58306;SDS011;44116;50.884;4.768;2023-08-31T03:10:41;6.7;;;3.2;;
58306;SDS011;44116;50.884;4.768;2023-08-31T03:12:41;6.2;;;3.5;;
58306;SDS011;44116;50.884;4.768;2023-08-31T03:14:41;6.7;;;3.3;;
58306;SDS011;44116;50.884;4.768;2023-08-31T03:18:40;7.9;;;3.6;;
58306;SDS011;44116;50.884;4.768;2023-08-31T03:20:40;6.8;;;3.5;;
58306;SDS011;44116;50.884;4.768;2023-08-31T03:22:40;5.9;;;3.4;;
58306;SDS011;44116;50.884;4.768;2023-08-31T03:24:39;7.4;;;3.2;;
58306;SDS011;44116;50.884;4.768;2023-08-31T03:26:39;9.8;;;3.7;;
58306;SDS011;44116;50.884;4.768;2023-08-31T03:28:39;5.9;;;3.2;;
58306;SDS011;44116;50.884;4.768;2023-08-31T03:30:39;7.1;;;3.5;;
58306;SDS011;44116;50.884;4.768;2023-08-31T03:32:38;6.2;;;2.9;;
58306;SDS011;44116;50.884;4.768;2023-08-31T03:34:38;6.4;;;3.2;;
58306;SDS011;44116;50.884;4.768;2023-08-31T03:36:38;10.4;;;3.7;;
58306;SDS011;44116;50.884;4.768;2023-08-31T03:38:38;5.5;;;3.2;;
58306;SDS011;44116;50.884;4.768;2023-08-31T03:40:37;7.7;;;3.5;;
58306;SDS011;44116;50.884;4.768;2023-08-31T03:42:37;7.6;;;3.4;;
58306;SDS011;44116;50.884;4.768;2023-08-31T03:44:37;4.9;;;3.1;;
58306;SDS011;44116;50.884;4.768;2023-08-31T03:46:37;7.9;;;3.5;;
58306;SDS011;44116;50.884;4.768;2023-08-31T03:48:36;6.0;;;3.4;;
58306;SDS011;44116;50.884;4.768;2023-08-31T03:50:37;6.7;;;3.5;;
58306;SDS011;44116;50.884;4.768;2023-08-31T03:54:36;5.6;;;3.3;;
58306;SDS011;44116;50.884;4.768;2023-08-31T03:56:35;5.6;;;3.5;;
58306;SDS011;44116;50.884;4.768;2023-08-31T03:58:35;5.9;;;3.4;;
58306;SDS011;44116;50.884;4.768;2023-08-31T04:00:36;7.2;;;3.3;;
58306;SDS011;44116;50.884;4.768;2023-08-31T04:02:35;9.0;;;3.5;;
58306;SDS011;44116;50.884;4.768;2023-08-31T04:08:34;6.6;;;3.6;;
58306;SDS011;44116;50.884;4.768;2023-08-31T04:10:34;5.9;;;3.1;;
58306;SDS011;44116;50.884;4.768;2023-08-31T04:12:34;5.3;;;3.2;;
58306;SDS011;44116;50.884;4.768;2023-08-31T04:14:33;6.9;;;3.3;;
58306;SDS011;44116;50.884;4.768;2023-08-31T04:16:33;7.2;;;3.0;;
58306;SDS011;44116;50.884;4.768;2023-08-31T04:18:33;5.6;;;3.1;;
58306;SDS011;44116;50.884;4.768;2023-08-31T04:20:33;6.3;;;3.2;;
58306;SDS011;44116;50.884;4.768;2023-08-31T04:22:32;7.1;;;3.5;;
58306;SDS011;44116;50.884;4.768;2023-08-31T04:24:32;8.8;;;3.2;;
58306;SDS011;44116;50.884;4.768;2023-08-31T04:26:32;7.9;;;3.7;;
58306;SDS011;44116;50.884;4.768;2023-08-31T04:28:32;7.2;;;3.1;;
58306;SDS011;44116;50.884;4.768;2023-08-31T04:30:31;6.7;;;3.3;;
58306;SDS011;44116;50.884;4.768;2023-08-31T04:32:31;6.2;;;3.2;;
58306;SDS011;44116;50.884;4.768;2023-08-31T04:34:31;4.9;;;3.1;;
58306;SDS011;44116;50.884;4.768;2023-08-31T04:36:31;5.5;;;2.7;;
58306;SDS011;44116;50.884;4.768;2023-08-31T04:40:30;6.8;;;3.1;;
58306;SDS011;44116;50.884;4.768;2023-08-31T04:42:30;5.8;;;3.0;;
58306;SDS011;44116;50.884;4.768;2023-08-31T04:44:30;6.1;;;2.7;;
58306;SDS011;44116;50.884;4.768;2023-08-31T04:48:29;7.4;;;2.5;;
58306;SDS011;44116;50.884;4.768;2023-08-31T04:50:29;8.1;;;2.9;;
58306;SDS011;44116;50.884;4.768;2023-08-31T04:52:28;6.4;;;3.0;;
58306;SDS011;44116;50.884;4.768;2023-08-31T04:54:28;4.4;;;2.6;;
58306;SDS011;44116;50.884;4.768;2023-08-31T04:56:30;6.5;;;3.2;;
58306;SDS011;44116;50.884;4.768;2023-08-31T04:58:28;6.4;;;2.8;;
58306;SDS011;44116;50.884;4.768;2023-08-31T05:00:28;5.5;;;2.9;;
58306;SDS011;44116;50.884;4.768;2023-08-31T05:04:27;6.0;;;2.8;;
58306;SDS011;44116;50.884;4.768;2023-08-31T05:06:27;5.7;;;2.7;;
58306;SDS011;44116;50.884;4.768;2023-08-31T05:08:26;7.0;;;2.9;;
58306;SDS011;44116;50.884;4.768;2023-08-31T05:12:26;6.1;;;2.6;;
58306;SDS011;44116;50.884;4.768;2023-08-31T05:14:26;5.9;;;2.7;;
58306;SDS011;44116;50.884;4.768;2023-08-31T05:16:26;7.3;;;2.8;;
58306;SDS011;44116;50.884;4.768;2023-08-31T05:18:26;6.4;;;3.0;;
58306;SDS011;44116;50.884;4.768;2023-08-31T05:20:25;8.3;;;2.9;;
58306;SDS011;44116;50.884;4.768;2023-08-31T05:22:25;7.6;;;3.2;;
58306;SDS011;44116;50.884;4.768;2023-08-31T05:24:24;5.7;;;2.7;;
58306;SDS011;44116;50.884;4.768;2023-08-31T05:26:24;6.0;;;2.6;;
58306;SDS011;44116;50.884;4.768;2023-08-31T05:28:24;7.0;;;2.8;;
58306;SDS011;44116;50.884;4.768;2023-08-31T05:30:24;7.0;;;2.9;;
58306;SDS011;44116;50.884;4.768;2023-08-31T05:32:24;5.8;;;3.3;;
58306;SDS011;44116;50.884;4.768;2023-08-31T05:34:25;6.6;;;2.7;;
58306;SDS011;44116;50.884;4.768;2023-08-31T05:36:23;5.5;;;3.0;;
58306;SDS011;44116;50.884;4.768;2023-08-31T05:38:23;6.9;;;2.9;;
58306;SDS011;44116;50.884;4.768;2023-08-31T05:40:23;5.5;;;3.2;;
58306;SDS011;44116;50.884;4.768;2023-08-31T05:42:22;8.7;;;3.5;;
58306;SDS011;44116;50.884;4.768;2023-08-31T05:44:22;7.8;;;3.3;;
58306;SDS011;44116;50.884;4.768;2023-08-31T05:46:22;6.0;;;3.1;;
58306;SDS011;44116;50.884;4.768;2023-08-31T05:48:22;8.0;;;3.4;;
58306;SDS011;44116;50.884;4.768;2023-08-31T05:50:21;8.1;;;3.3;;
58306;SDS011;44116;50.884;4.768;2023-08-31T05:54:21;7.4;;;3.4;;
58306;SDS011;44116;50.884;4.768;2023-08-31T05:56:20;6.7;;;3.3;;
58306;SDS011;44116;50.884;4.768;2023-08-31T05:58:20;6.6;;;3.7;;
58306;SDS011;44116;50.884;4.768;2023-08-31T06:00:20;7.7;;;3.2;;
58306;SDS011;44116;50.884;4.768;2023-08-31T06:06:19;7.7;;;3.5;;
58306;SDS011;44116;50.884;4.768;2023-08-31T06:08:19;7.2;;;3.7;;
58306;SDS011;44116;50.884;4.768;2023-08-31T06:10:19;8.4;;;3.5;;
58306;SDS011;44116;50.884;4.768;2023-08-31T06:14:18;8.4;;;3.4;;
58306;SDS011;44116;50.884;4.768;2023-08-31T06:16:18;9.1;;;3.6;;
58306;SDS011;44116;50.884;4.768;2023-08-31T06:18:18;6.0;;;3.5;;
58306;SDS011;44116;50.884;4.768;2023-08-31T06:20:17;7.8;;;3.6;;
58306;SDS011;44116;50.884;4.768;2023-08-31T06:22:17;7.1;;;3.7;;
58306;SDS011;44116;50.884;4.768;2023-08-31T06:26:17;10.9;;;4.0;;
58306;SDS011;44116;50.884;4.768;2023-08-31T06:28:16;6.6;;;3.7;;
58306;SDS011;44116;50.884;4.768;2023-08-31T06:30:16;6.4;;;3.4;;
58306;SDS011;44116;50.884;4.768;2023-08-31T06:32:16;7.7;;;3.7;;
58306;SDS011;44116;50.884;4.768;2023-08-31T06:34:16;8.9;;;3.9;;
58306;SDS011;44116;50.884;4.768;2023-08-31T06:36:15;15.9;;;4.0;;
58306;SDS011;44116;50.884;4.768;2023-08-31T06:38:15;10.2;;;3.6;;
58306;SDS011;44116;50.884;4.768;2023-08-31T06:40:15;12.3;;;4.1;;
58306;SDS011;44116;50.884;4.768;2023-08-31T06:42:15;10.0;;;3.6;;
58306;SDS011;44116;50.884;4.768;2023-08-31T06:44:14;10.4;;;4.1;;
58306;SDS011;44116;50.884;4.768;2023-08-31T06:46:14;10.8;;;3.8;;
58306;SDS011;44116;50.884;4.768;2023-08-31T06:48:14;12.2;;;4.2;;
58306;SDS011;44116;50.884;4.768;2023-08-31T06:50:14;11.7;;;4.0;;
58306;SDS011;44116;50.884;4.768;2023-08-31T06:52:13;10.7;;;3.6;;
58306;SDS011;44116;50.884;4.768;2023-08-31T06:54:13;9.5;;;3.9;;
58306;SDS011;44116;50.884;4.768;2023-08-31T06:58:13;11.0;;;3.8;;
58306;SDS011;44116;50.884;4.768;2023-08-31T07:00:13;13.7;;;4.4;;
58306;SDS011;44116;50.884;4.768;2023-08-31T07:02:12;8.8;;;3.7;;
58306;SDS011;44116;50.884;4.768;2023-08-31T07:04:12;10.8;;;4.4;;
58306;SDS011;44116;50.884;4.768;2023-08-31T07:06:12;11.3;;;3.9;;
58306;SDS011;44116;50.884;4.768;2023-08-31T07:08:12;9.7;;;3.6;;
58306;SDS011;44116;50.884;4.768;2023-08-31T07:10:11;12.5;;;4.2;;
58306;SDS011;44116;50.884;4.768;2023-08-31T07:12:11;10.3;;;4.0;;
58306;SDS011;44116;50.884;4.768;2023-08-31T07:14:11;11.8;;;4.2;;
58306;SDS011;44116;50.884;4.768;2023-08-31T07:18:11;9.0;;;3.7;;
58306;SDS011;44116;50.884;4.768;2023-08-31T07:20:11;12.7;;;4.2;;
58306;SDS011;44116;50.884;4.768;2023-08-31T07:22:10;12.9;;;4.5;;
58306;SDS011;44116;50.884;4.768;2023-08-31T07:24:10;7.8;;;3.5;;
58306;SDS011;44116;50.884;4.768;2023-08-31T07:26:10;10.6;;;4.4;;
58306;SDS011;44116;50.884;4.768;2023-08-31T07:28:10;15.0;;;4.3;;
58306;SDS011;44116;50.884;4.768;2023-08-31T07:30:10;12.9;;;4.2;;
58306;SDS011;44116;50.884;4.768;2023-08-31T07:32:09;11.1;;;4.0;;
58306;SDS011;44116;50.884;4.768;2023-08-31T07:34:09;14.7;;;4.2;;
58306;SDS011;44116;50.884;4.768;2023-08-31T07:36:09;11.8;;;4.3;;
58306;SDS011;44116;50.884;4.768;2023-08-31T07:38:09;10.4;;;4.1;;
58306;SDS011;44116;50.884;4.768;2023-08-31T07:40:09;14.1;;;4.5;;
58306;SDS011;44116;50.884;4.768;2023-08-31T07:42:08;13.6;;;4.3;;
58306;SDS011;44116;50.884;4.768;2023-08-31T07:44:08;12.1;;;4.0;;
58306;SDS011;44116;50.884;4.768;2023-08-31T07:46:08;14.4;;;4.9;;
58306;SDS011;44116;50.884;4.768;2023-08-31T07:48:08;12.5;;;4.5;;
58306;SDS011;44116;50.884;4.768;2023-08-31T07:52:07;12.6;;;4.0;;
58306;SDS011;44116;50.884;4.768;2023-08-31T07:54:07;12.8;;;4.6;;
58306;SDS011;44116;50.884;4.768;2023-08-31T07:56:07;11.9;;;4.3;;
58306;SDS011;44116;50.884;4.768;2023-08-31T07:58:07;13.8;;;4.1;;
58306;SDS011;44116;50.884;4.768;2023-08-31T08:00:07;9.8;;;4.3;;
58306;SDS011;44116;50.884;4.768;2023-08-31T08:02:06;12.3;;;4.4;;
58306;SDS011;44116;50.884;4.768;2023-08-31T08:04:06;11.7;;;4.2;;
58306;SDS011;44116;50.884;4.768;2023-08-31T08:08:06;14.2;;;4.5;;
58306;SDS011;44116;50.884;4.768;2023-08-31T08:10:06;13.0;;;4.4;;
58306;SDS011;44116;50.884;4.768;2023-08-31T08:12:06;9.7;;;4.5;;
58306;SDS011;44116;50.884;4.768;2023-08-31T08:14:05;14.3;;;4.8;;
58306;SDS011;44116;50.884;4.768;2023-08-31T08:16:05;11.8;;;4.2;;
58306;SDS011;44116;50.884;4.768;2023-08-31T08:18:05;13.0;;;4.5;;
58306;SDS011;44116;50.884;4.768;2023-08-31T08:20:06;9.3;;;4.1;;
58306;SDS011;44116;50.884;4.768;2023-08-31T08:22:05;14.4;;;4.8;;
58306;SDS011;44116;50.884;4.768;2023-08-31T08:24:05;11.7;;;4.2;;
58306;SDS011;44116;50.884;4.768;2023-08-31T08:26:05;11.5;;;4.7;;
58306;SDS011;44116;50.884;4.768;2023-08-31T08:28:04;9.2;;;4.0;;
58306;SDS011;44116;50.884;4.768;2023-08-31T08:30:05;11.3;;;4.1;;
58306;SDS011;44116;50.884;4.768;2023-08-31T08:32:04;13.4;;;4.2;;
58306;SDS011;44116;50.884;4.768;2023-08-31T08:36:04;10.9;;;3.9;;
58306;SDS011;44116;50.884;4.768;2023-08-31T08:40:04;9.7;;;4.3;;
58306;SDS011;44116;50.884;4.768;2023-08-31T08:42:04;11.0;;;3.9;;
58306;SDS011;44116;50.884;4.768;2023-08-31T08:44:05;10.8;;;4.2;;
58306;SDS011;44116;50.884;4.768;2023-08-31T08:46:05;11.4;;;3.9;;
58306;SDS011;44116;50.884;4.768;2023-08-31T08:48:05;10.5;;;4.0;;
58306;SDS011;44116;50.884;4.768;2023-08-31T08:50:03;12.1;;;4.2;;
58306;SDS011;44116;50.884;4.768;2023-08-31T08:52:03;10.9;;;4.0;;
58306;SDS011;44116;50.884;4.768;2023-08-31T08:56:02;11.0;;;3.6;;
58306;SDS011;44116;50.884;4.768;2023-08-31T08:58:02;9.8;;;3.8;;
58306;SDS011;44116;50.884;4.768;2023-08-31T09:00:03;12.2;;;4.0;;
58306;SDS011;44116;50.884;4.768;2023-08-31T09:02:02;10.1;;;3.9;;
58306;SDS011;44116;50.884;4.768;2023-08-31T09:06:02;9.7;;;3.6;;
58306;SDS011;44116;50.884;4.768;2023-08-31T09:10:02;13.7;;;3.9;;
58306;SDS011;44116;50.884;4.768;2023-08-31T09:12:06;12.8;;;4.0;;
58306;SDS011;44116;50.884;4.768;2023-08-31T09:18:01;12.6;;;4.5;;
58306;SDS011;44116;50.884;4.768;2023-08-31T09:20:02;11.3;;;4.0;;
58306;SDS011;44116;50.884;4.768;2023-08-31T09:22:01;17.0;;;5.5;;
58306;SDS011;44116;50.884;4.768;2023-08-31T09:24:00;7.1;;;3.6;;
58306;SDS011;44116;50.884;4.768;2023-08-31T09:28:02;10.3;;;3.8;;
58306;SDS011;44116;50.884;4.768;2023-08-31T09:30:01;14.2;;;4.0;;
58306;SDS011;44116;50.884;4.768;2023-08-31T09:32:01;10.6;;;3.6;;
58306;SDS011;44116;50.884;4.768;2023-08-31T09:34:00;10.9;;;3.7;;
58306;SDS011;44116;50.884;4.768;2023-08-31T09:36:00;9.7;;;3.3;;
58306;SDS011;44116;50.884;4.768;2023-08-31T09:38:00;12.7;;;4.0;;
58306;SDS011;44116;50.884;4.768;2023-08-31T09:40:02;9.7;;;4.1;;
58306;SDS011;44116;50.884;4.768;2023-08-31T09:42:00;9.0;;;3.7;;
58306;SDS011;44116;50.884;4.768;2023-08-31T09:44:14;10.5;;;3.6;;
58306;SDS011;44116;50.884;4.768;2023-08-31T09:48:01;8.9;;;3.4;;
58306;SDS011;44116;50.884;4.768;2023-08-31T09:50:00;8.9;;;3.2;;
58306;SDS011;44116;50.884;4.768;2023-08-31T09:52:03;8.8;;;3.4;;
58306;SDS011;44116;50.884;4.768;2023-08-31T09:53:59;7.3;;;3.2;;
58306;SDS011;44116;50.884;4.768;2023-08-31T09:58:00;8.6;;;2.9;;
58306;SDS011;44116;50.884;4.768;2023-08-31T09:59:59;7.1;;;2.8;;
58306;SDS011;44116;50.884;4.768;2023-08-31T10:01:59;9.7;;;3.3;;
58306;SDS011;44116;50.884;4.768;2023-08-31T10:07:59;6.9;;;2.8;;
58306;SDS011;44116;50.884;4.768;2023-08-31T10:10:00;8.0;;;3.1;;
58306;SDS011;44116;50.884;4.768;2023-08-31T10:11:59;8.8;;;3.0;;
58306;SDS011;44116;50.884;4.768;2023-08-31T10:13:59;7.6;;;2.6;;
58306;SDS011;44116;50.884;4.768;2023-08-31T10:17:59;7.7;;;2.8;;
58306;SDS011;44116;50.884;4.768;2023-08-31T10:19:59;7.4;;;2.5;;
58306;SDS011;44116;50.884;4.768;2023-08-31T10:21:59;8.8;;;2.6;;
58306;SDS011;44116;50.884;4.768;2023-08-31T10:23:58;9.2;;;3.0;;
58306;SDS011;44116;50.884;4.768;2023-08-31T10:27:58;7.0;;;2.9;;
58306;SDS011;44116;50.884;4.768;2023-08-31T10:34:00;6.1;;;2.3;;
58306;SDS011;44116;50.884;4.768;2023-08-31T10:35:59;7.8;;;2.5;;
58306;SDS011;44116;50.884;4.768;2023-08-31T10:38:13;7.9;;;2.9;;
58306;SDS011;44116;50.884;4.768;2023-08-31T10:40:09;7.7;;;2.5;;
58306;SDS011;44116;50.884;4.768;2023-08-31T10:42:00;7.4;;;2.3;;
58306;SDS011;44116;50.884;4.768;2023-08-31T10:43:58;10.3;;;2.6;;
58306;SDS011;44116;50.884;4.768;2023-08-31T10:45:58;8.0;;;2.4;;
58306;SDS011;44116;50.884;4.768;2023-08-31T10:48:00;6.3;;;2.5;;
58306;SDS011;44116;50.884;4.768;2023-08-31T10:50:17;8.8;;;3.0;;
58306;SDS011;44116;50.884;4.768;2023-08-31T10:52:17;8.1;;;2.9;;
58306;SDS011;44116;50.884;4.768;2023-08-31T10:54:04;8.0;;;2.5;;
58306;SDS011;44116;50.884;4.768;2023-08-31T10:55:58;5.9;;;2.1;;
58306;SDS011;44116;50.884;4.768;2023-08-31T10:57:58;5.5;;;2.4;;
58306;SDS011;44116;50.884;4.768;2023-08-31T10:59:58;6.4;;;2.2;;
58306;SDS011;44116;50.884;4.768;2023-08-31T11:01:59;8.1;;;2.6;;
58306;SDS011;44116;50.884;4.768;2023-08-31T11:03:58;8.7;;;2.8;;
58306;SDS011;44116;50.884;4.768;2023-08-31T11:05:58;5.0;;;2.1;;
58306;SDS011;44116;50.884;4.768;2023-08-31T11:07:58;8.2;;;2.4;;
58306;SDS011;44116;50.884;4.768;2023-08-31T11:10:12;6.7;;;2.2;;
58306;SDS011;44116;50.884;4.768;2023-08-31T11:11:58;7.8;;;2.1;;
58306;SDS011;44116;50.884;4.768;2023-08-31T11:15:58;8.3;;;2.4;;
58306;SDS011;44116;50.884;4.768;2023-08-31T11:17:58;9.4;;;2.5;;
58306;SDS011;44116;50.884;4.768;2023-08-31T11:19:58;5.6;;;2.2;;
58306;SDS011;44116;50.884;4.768;2023-08-31T11:21:58;7.1;;;2.3;;
58306;SDS011;44116;50.884;4.768;2023-08-31T11:23:58;6.1;;;2.2;;
58306;SDS011;44116;50.884;4.768;2023-08-31T11:25:58;6.5;;;2.1;;
58306;SDS011;44116;50.884;4.768;2023-08-31T11:27:59;6.2;;;2.7;;
58306;SDS011;44116;50.884;4.768;2023-08-31T11:29:57;7.8;;;2.1;;
58306;SDS011;44116;50.884;4.768;2023-08-31T11:31:58;5.3;;;2.0;;
58306;SDS011;44116;50.884;4.768;2023-08-31T11:33:57;6.5;;;2.4;;
58306;SDS011;44116;50.884;4.768;2023-08-31T11:35:58;6.9;;;2.3;;
58306;SDS011;44116;50.884;4.768;2023-08-31T11:37:57;9.0;;;2.5;;
58306;SDS011;44116;50.884;4.768;2023-08-31T11:39:58;9.1;;;2.8;;
58306;SDS011;44116;50.884;4.768;2023-08-31T11:41:57;5.9;;;2.2;;
58306;SDS011;44116;50.884;4.768;2023-08-31T11:43:57;8.9;;;2.7;;
58306;SDS011;44116;50.884;4.768;2023-08-31T11:45:57;7.5;;;2.4;;
58306;SDS011;44116;50.884;4.768;2023-08-31T11:47:58;7.9;;;2.3;;
58306;SDS011;44116;50.884;4.768;2023-08-31T11:49:58;7.7;;;2.6;;
58306;SDS011;44116;50.884;4.768;2023-08-31T11:51:57;8.6;;;2.7;;
58306;SDS011;44116;50.884;4.768;2023-08-31T11:53:57;10.2;;;2.8;;
58306;SDS011;44116;50.884;4.768;2023-08-31T11:55:57;7.2;;;2.3;;
58306;SDS011;44116;50.884;4.768;2023-08-31T11:57:57;10.5;;;2.8;;
58306;SDS011;44116;50.884;4.768;2023-08-31T11:59:57;8.3;;;2.6;;
58306;SDS011;44116;50.884;4.768;2023-08-31T12:01:57;6.5;;;2.4;;
58306;SDS011;44116;50.884;4.768;2023-08-31T12:03:57;8.9;;;2.2;;
58306;SDS011;44116;50.884;4.768;2023-08-31T12:05:57;8.7;;;2.6;;
58306;SDS011;44116;50.884;4.768;2023-08-31T12:07:57;7.2;;;2.3;;
58306;SDS011;44116;50.884;4.768;2023-08-31T12:10:02;8.9;;;2.4;;
58306;SDS011;44116;50.884;4.768;2023-08-31T12:11:57;8.7;;;2.5;;
58306;SDS011;44116;50.884;4.768;2023-08-31T12:17:57;10.6;;;2.6;;
58306;SDS011;44116;50.884;4.768;2023-08-31T12:20:02;7.5;;;2.4;;
58306;SDS011;44116;50.884;4.768;2023-08-31T12:21:57;9.9;;;2.5;;
58306;SDS011;44116;50.884;4.768;2023-08-31T12:23:57;7.7;;;2.7;;
58306;SDS011;44116;50.884;4.768;2023-08-31T12:25:57;6.0;;;2.3;;
58306;SDS011;44116;50.884;4.768;2023-08-31T12:27:57;7.7;;;2.4;;
58306;SDS011;44116;50.884;4.768;2023-08-31T12:29:57;5.5;;;2.3;;
58306;SDS011;44116;50.884;4.768;2023-08-31T12:31:57;7.1;;;2.5;;
58306;SDS011;44116;50.884;4.768;2023-08-31T12:35:57;7.6;;;2.4;;
58306;SDS011;44116;50.884;4.768;2023-08-31T12:37:57;7.4;;;2.2;;
58306;SDS011;44116;50.884;4.768;2023-08-31T12:43:57;7.0;;;2.0;;
58306;SDS011;44116;50.884;4.768;2023-08-31T12:45:57;5.2;;;1.8;;
58306;SDS011;44116;50.884;4.768;2023-08-31T12:47:57;6.7;;;2.1;;
58306;SDS011;44116;50.884;4.768;2023-08-31T12:49:57;6.5;;;2.0;;
58306;SDS011;44116;50.884;4.768;2023-08-31T12:53:57;6.1;;;2.1;;
58306;SDS011;44116;50.884;4.768;2023-08-31T12:55:56;7.0;;;2.3;;
58306;SDS011;44116;50.884;4.768;2023-08-31T12:57:56;6.5;;;2.1;;
58306;SDS011;44116;50.884;4.768;2023-08-31T12:59:56;4.9;;;1.9;;
58306;SDS011;44116;50.884;4.768;2023-08-31T13:03:56;6.4;;;2.2;;
58306;SDS011;44116;50.884;4.768;2023-08-31T13:07:56;6.2;;;2.1;;
58306;SDS011;44116;50.884;4.768;2023-08-31T13:11:56;8.5;;;2.3;;
58306;SDS011;44116;50.884;4.768;2023-08-31T13:13:56;9.8;;;2.2;;
58306;SDS011;44116;50.884;4.768;2023-08-31T13:15:56;6.2;;;2.1;;
58306;SDS011;44116;50.884;4.768;2023-08-31T13:19:57;6.4;;;2.0;;
58306;SDS011;44116;50.884;4.768;2023-08-31T13:21:56;8.8;;;2.2;;
58306;SDS011;44116;50.884;4.768;2023-08-31T13:23:56;9.7;;;2.3;;
58306;SDS011;44116;50.884;4.768;2023-08-31T13:27:56;6.5;;;2.1;;
58306;SDS011;44116;50.884;4.768;2023-08-31T13:29:56;7.0;;;2.0;;
58306;SDS011;44116;50.884;4.768;2023-08-31T13:33:56;8.9;;;2.2;;
58306;SDS011;44116;50.884;4.768;2023-08-31T13:35:57;5.0;;;1.9;;
58306;SDS011;44116;50.884;4.768;2023-08-31T13:37:56;5.2;;;2.2;;
58306;SDS011;44116;50.884;4.768;2023-08-31T13:39:55;4.5;;;1.9;;
58306;SDS011;44116;50.884;4.768;2023-08-31T13:41:56;5.3;;;1.8;;
58306;SDS011;44116;50.884;4.768;2023-08-31T13:43:55;6.5;;;2.0;;
58306;SDS011;44116;50.884;4.768;2023-08-31T13:45:56;7.3;;;2.1;;
58306;SDS011;44116;50.884;4.768;2023-08-31T13:47:56;6.6;;;1.9;;
58306;SDS011;44116;50.884;4.768;2023-08-31T13:49:55;7.0;;;2.0;;
58306;SDS011;44116;50.884;4.768;2023-08-31T13:51:56;4.8;;;1.7;;
58306;SDS011;44116;50.884;4.768;2023-08-31T13:55:55;7.1;;;1.8;;
58306;SDS011;44116;50.884;4.768;2023-08-31T13:57:55;6.5;;;1.9;;
58306;SDS011;44116;50.884;4.768;2023-08-31T13:59:55;5.4;;;2.0;;
58306;SDS011;44116;50.884;4.768;2023-08-31T14:01:55;6.2;;;2.1;;
58306;SDS011;44116;50.884;4.768;2023-08-31T14:03:55;6.3;;;2.4;;
58306;SDS011;44116;50.884;4.768;2023-08-31T14:05:55;6.4;;;1.8;;
58306;SDS011;44116;50.884;4.768;2023-08-31T14:07:55;5.5;;;1.9;;
58306;SDS011;44116;50.884;4.768;2023-08-31T14:09:55;6.0;;;2.1;;
58306;SDS011;44116;50.884;4.768;2023-08-31T14:11:55;6.9;;;2.2;;
58306;SDS011;44116;50.884;4.768;2023-08-31T14:14:02;6.2;;;2.1;;
58306;SDS011;44116;50.884;4.768;2023-08-31T14:15:55;7.1;;;2.3;;
58306;SDS011;44116;50.884;4.768;2023-08-31T14:17:55;11.0;;;2.7;;
58306;SDS011;44116;50.884;4.768;2023-08-31T14:19:56;10.6;;;2.8;;
58306;SDS011;44116;50.884;4.768;2023-08-31T14:21:55;7.3;;;2.3;;
58306;SDS011;44116;50.884;4.768;2023-08-31T14:23:55;8.3;;;2.4;;
58306;SDS011;44116;50.884;4.768;2023-08-31T14:26:00;6.7;;;2.2;;
58306;SDS011;44116;50.884;4.768;2023-08-31T14:27:55;7.3;;;2.3;;
58306;SDS011;44116;50.884;4.768;2023-08-31T14:29:55;6.7;;;2.2;;